sensor_id;sensor_type;location;lat;lon;timestamp;P1;durP1;ratioP1;P2;durP2;ratioP2
10715;SDS011;5409;42.620;23.316;2023-02-15T00:00:16;31.25;;;19.25;;
10715;SDS011;5409;42.620;23.316;2023-02-15T00:02:43;30.58;;;18.90;;
10715;SDS011;5409;42.620;23.316;2023-02-15T00:05:10;28.27;;;18.05;;
10715;SDS011;5409;42.620;23.316;2023-02-15T00:07:37;30.23;;;18.40;;
10715;SDS011;5409;42.620;23.316;2023-02-15T00:10:05;27.93;;;16.33;;
10715;SDS011;5409;42.620;23.316;2023-02-15T00:12:32;28.85;;;17.90;;
10715;SDS011;5409;42.620;23.316;2023-02-15T00:15:01;29.33;;;18.20;;
10715;SDS011;5409;42.620;23.316;2023-02-15T00:17:28;35.03;;;19.30;;
10715;SDS011;5409;42.620;23.316;2023-02-15T00:19:55;32.25;;;18.88;;
10715;SDS011;5409;42.620;23.316;2023-02-15T00:22:22;32.53;;;19.48;;
10715;SDS011;5409;42.620;23.316;2023-02-15T00:24:48;30.77;;;18.17;;
10715;SDS011;5409;42.620;23.316;2023-02-15T00:27:16;33.80;;;19.38;;
10715;SDS011;5409;42.620;23.316;2023-02-15T00:29:42;30.70;;;19.50;;
10715;SDS011;5409;42.620;23.316;2023-02-15T00:32:11;28.80;;;19.83;;
10715;SDS011;5409;42.620;23.316;2023-02-15T00:34:37;30.77;;;17.67;;
10715;SDS011;5409;42.620;23.316;2023-02-15T00:37:04;24.73;;;16.70;;
10715;SDS011;5409;42.620;23.316;2023-02-15T00:39:31;30.58;;;18.92;;
10715;SDS011;5409;42.620;23.316;2023-02-15T00:41:58;27.35;;;17.65;;
10715;SDS011;5409;42.620;23.316;2023-02-15T00:44:25;23.70;;;15.57;;
10715;SDS011;5409;42.620;23.316;2023-02-15T00:46:52;25.75;;;17.30;;
10715;SDS011;5409;42.620;23.316;2023-02-15T00:49:20;30.27;;;19.85;;
10715;SDS011;5409;42.620;23.316;2023-02-15T00:51:47;25.95;;;16.40;;
10715;SDS011;5409;42.620;23.316;2023-02-15T00:54:13;30.33;;;18.55;;
10715;SDS011;5409;42.620;23.316;2023-02-15T00:56:40;32.88;;;19.35;;
10715;SDS011;5409;42.620;23.316;2023-02-15T00:59:08;28.98;;;17.35;;
10715;SDS011;5409;42.620;23.316;2023-02-15T01:01:35;33.95;;;21.08;;
10715;SDS011;5409;42.620;23.316;2023-02-15T01:04:01;29.40;;;18.25;;
10715;SDS011;5409;42.620;23.316;2023-02-15T01:06:30;29.77;;;18.75;;
10715;SDS011;5409;42.620;23.316;2023-02-15T01:08:57;31.30;;;18.80;;
10715;SDS011;5409;42.620;23.316;2023-02-15T01:11:23;26.42;;;16.88;;
10715;SDS011;5409;42.620;23.316;2023-02-15T01:13:51;30.98;;;17.88;;
10715;SDS011;5409;42.620;23.316;2023-02-15T01:16:19;28.17;;;16.05;;
10715;SDS011;5409;42.620;23.316;2023-02-15T01:18:46;29.27;;;17.25;;
10715;SDS011;5409;42.620;23.316;2023-02-15T01:21:14;31.95;;;19.65;;
10715;SDS011;5409;42.620;23.316;2023-02-15T01:23:44;29.90;;;16.85;;
10715;SDS011;5409;42.620;23.316;2023-02-15T01:26:11;29.58;;;18.17;;
10715;SDS011;5409;42.620;23.316;2023-02-15T01:28:38;32.67;;;17.50;;
10715;SDS011;5409;42.620;23.316;2023-02-15T01:31:06;25.67;;;15.40;;
10715;SDS011;5409;42.620;23.316;2023-02-15T01:33:34;27.90;;;16.38;;
10715;SDS011;5409;42.620;23.316;2023-02-15T01:36:03;32.02;;;19.60;;
10715;SDS011;5409;42.620;23.316;2023-02-15T01:38:30;26.92;;;16.98;;
10715;SDS011;5409;42.620;23.316;2023-02-15T01:40:59;29.00;;;17.50;;
10715;SDS011;5409;42.620;23.316;2023-02-15T01:43:40;19.30;;;12.77;;
10715;SDS011;5409;42.620;23.316;2023-02-15T01:46:07;27.10;;;17.93;;
10715;SDS011;5409;42.620;23.316;2023-02-15T01:48:35;28.88;;;17.42;;
10715;SDS011;5409;42.620;23.316;2023-02-15T01:51:10;27.97;;;15.83;;
10715;SDS011;5409;42.620;23.316;2023-02-15T01:53:38;24.65;;;13.60;;
10715;SDS011;5409;42.620;23.316;2023-02-15T01:56:11;22.85;;;14.90;;
10715;SDS011;5409;42.620;23.316;2023-02-15T01:58:41;25.47;;;15.63;;
10715;SDS011;5409;42.620;23.316;2023-02-15T02:01:10;25.60;;;15.15;;
10715;SDS011;5409;42.620;23.316;2023-02-15T02:03:39;26.38;;;16.23;;
10715;SDS011;5409;42.620;23.316;2023-02-15T02:06:16;31.17;;;16.58;;
10715;SDS011;5409;42.620;23.316;2023-02-15T02:08:43;23.88;;;14.35;;
10715;SDS011;5409;42.620;23.316;2023-02-15T02:11:13;28.73;;;17.95;;
10715;SDS011;5409;42.620;23.316;2023-02-15T02:13:40;26.52;;;15.85;;
10715;SDS011;5409;42.620;23.316;2023-02-15T02:16:11;23.77;;;15.75;;
10715;SDS011;5409;42.620;23.316;2023-02-15T02:18:44;25.40;;;14.63;;
10715;SDS011;5409;42.620;23.316;2023-02-15T02:24:41;22.07;;;14.20;;
10715;SDS011;5409;42.620;23.316;2023-02-15T02:27:30;23.05;;;12.07;;
10715;SDS011;5409;42.620;23.316;2023-02-15T02:30:15;22.05;;;14.18;;
10715;SDS011;5409;42.620;23.316;2023-02-15T02:33:11;21.85;;;14.55;;
10715;SDS011;5409;42.620;23.316;2023-02-15T02:35:57;20.37;;;11.67;;
10715;SDS011;5409;42.620;23.316;2023-02-15T02:38:33;23.88;;;13.07;;
10715;SDS011;5409;42.620;23.316;2023-02-15T02:41:13;25.60;;;14.98;;
10715;SDS011;5409;42.620;23.316;2023-02-15T02:43:48;21.80;;;13.43;;
10715;SDS011;5409;42.620;23.316;2023-02-15T02:46:20;28.77;;;17.00;;
10715;SDS011;5409;42.620;23.316;2023-02-15T02:48:51;26.08;;;16.00;;
10715;SDS011;5409;42.620;23.316;2023-02-15T02:51:19;25.00;;;15.73;;
10715;SDS011;5409;42.620;23.316;2023-02-15T02:53:48;24.15;;;16.05;;
10715;SDS011;5409;42.620;23.316;2023-02-15T02:56:19;23.92;;;15.70;;
10715;SDS011;5409;42.620;23.316;2023-02-15T02:58:51;27.33;;;16.08;;
10715;SDS011;5409;42.620;23.316;2023-02-15T03:01:23;24.00;;;14.27;;
10715;SDS011;5409;42.620;23.316;2023-02-15T03:03:56;27.65;;;16.55;;
10715;SDS011;5409;42.620;23.316;2023-02-15T03:06:28;24.55;;;16.00;;
10715;SDS011;5409;42.620;23.316;2023-02-15T03:09:01;26.35;;;16.63;;
10715;SDS011;5409;42.620;23.316;2023-02-15T03:11:33;23.92;;;13.52;;
10715;SDS011;5409;42.620;23.316;2023-02-15T03:14:00;22.35;;;14.38;;
10715;SDS011;5409;42.620;23.316;2023-02-15T03:16:27;22.33;;;14.65;;
10715;SDS011;5409;42.620;23.316;2023-02-15T03:18:57;22.95;;;15.02;;
10715;SDS011;5409;42.620;23.316;2023-02-15T03:21:31;26.23;;;14.13;;
10715;SDS011;5409;42.620;23.316;2023-02-15T03:24:03;24.67;;;16.52;;
10715;SDS011;5409;42.620;23.316;2023-02-15T03:26:34;27.35;;;15.85;;
10715;SDS011;5409;42.620;23.316;2023-02-15T03:29:02;19.55;;;11.98;;
10715;SDS011;5409;42.620;23.316;2023-02-15T03:31:32;20.85;;;14.57;;
10715;SDS011;5409;42.620;23.316;2023-02-15T03:34:06;22.55;;;13.23;;
10715;SDS011;5409;42.620;23.316;2023-02-15T03:36:37;18.98;;;12.35;;
10715;SDS011;5409;42.620;23.316;2023-02-15T03:39:11;21.73;;;15.30;;
10715;SDS011;5409;42.620;23.316;2023-02-15T03:41:46;20.08;;;12.52;;
10715;SDS011;5409;42.620;23.316;2023-02-15T03:44:20;22.73;;;14.55;;
10715;SDS011;5409;42.620;23.316;2023-02-15T03:46:54;25.25;;;14.38;;
10715;SDS011;5409;42.620;23.316;2023-02-15T03:49:29;21.17;;;13.32;;
10715;SDS011;5409;42.620;23.316;2023-02-15T03:52:03;24.30;;;15.68;;
10715;SDS011;5409;42.620;23.316;2023-02-15T03:54:33;22.75;;;14.48;;
10715;SDS011;5409;42.620;23.316;2023-02-15T03:57:16;22.80;;;14.25;;
10715;SDS011;5409;42.620;23.316;2023-02-15T04:00:03;22.88;;;15.45;;
10715;SDS011;5409;42.620;23.316;2023-02-15T04:03:09;22.45;;;13.77;;
10715;SDS011;5409;42.620;23.316;2023-02-15T04:05:46;22.50;;;14.15;;
10715;SDS011;5409;42.620;23.316;2023-02-15T04:08:13;22.58;;;15.60;;
10715;SDS011;5409;42.620;23.316;2023-02-15T04:10:39;21.80;;;14.48;;
10715;SDS011;5409;42.620;23.316;2023-02-15T04:13:17;21.30;;;14.07;;
10715;SDS011;5409;42.620;23.316;2023-02-15T04:15:44;25.98;;;15.68;;
10715;SDS011;5409;42.620;23.316;2023-02-15T04:18:28;24.65;;;15.90;;
10715;SDS011;5409;42.620;23.316;2023-02-15T04:21:14;24.42;;;15.90;;
10715;SDS011;5409;42.620;23.316;2023-02-15T04:23:59;25.30;;;14.83;;
10715;SDS011;5409;42.620;23.316;2023-02-15T04:26:43;23.13;;;14.15;;
10715;SDS011;5409;42.620;23.316;2023-02-15T04:29:10;20.80;;;14.32;;
10715;SDS011;5409;42.620;23.316;2023-02-15T04:31:37;23.67;;;15.65;;
10715;SDS011;5409;42.620;23.316;2023-02-15T04:34:04;26.55;;;16.83;;
10715;SDS011;5409;42.620;23.316;2023-02-15T04:36:32;27.95;;;16.80;;
10715;SDS011;5409;42.620;23.316;2023-02-15T04:38:59;26.80;;;16.88;;
10715;SDS011;5409;42.620;23.316;2023-02-15T04:41:26;29.10;;;15.88;;
10715;SDS011;5409;42.620;23.316;2023-02-15T04:43:53;28.15;;;15.80;;
10715;SDS011;5409;42.620;23.316;2023-02-15T04:46:19;27.58;;;15.77;;
10715;SDS011;5409;42.620;23.316;2023-02-15T04:48:46;25.60;;;16.17;;
10715;SDS011;5409;42.620;23.316;2023-02-15T04:51:13;24.55;;;16.38;;
10715;SDS011;5409;42.620;23.316;2023-02-15T04:53:41;23.67;;;14.77;;
10715;SDS011;5409;42.620;23.316;2023-02-15T04:56:08;22.85;;;14.95;;
10715;SDS011;5409;42.620;23.316;2023-02-15T04:58:35;23.60;;;14.32;;
10715;SDS011;5409;42.620;23.316;2023-02-15T05:01:02;23.92;;;15.70;;
10715;SDS011;5409;42.620;23.316;2023-02-15T05:03:31;25.10;;;15.20;;
10715;SDS011;5409;42.620;23.316;2023-02-15T05:05:58;24.30;;;14.80;;
10715;SDS011;5409;42.620;23.316;2023-02-15T05:08:24;25.20;;;15.77;;
10715;SDS011;5409;42.620;23.316;2023-02-15T05:10:53;31.03;;;17.40;;
10715;SDS011;5409;42.620;23.316;2023-02-15T05:13:19;24.33;;;14.77;;
10715;SDS011;5409;42.620;23.316;2023-02-15T05:15:46;26.97;;;15.13;;
10715;SDS011;5409;42.620;23.316;2023-02-15T05:18:15;30.73;;;16.90;;
10715;SDS011;5409;42.620;23.316;2023-02-15T05:20:42;22.65;;;14.70;;
10715;SDS011;5409;42.620;23.316;2023-02-15T05:23:09;25.20;;;15.73;;
10715;SDS011;5409;42.620;23.316;2023-02-15T05:25:36;27.10;;;15.52;;
10715;SDS011;5409;42.620;23.316;2023-02-15T05:28:22;26.77;;;15.67;;
10715;SDS011;5409;42.620;23.316;2023-02-15T05:30:51;24.17;;;14.95;;
10715;SDS011;5409;42.620;23.316;2023-02-15T05:33:28;23.53;;;13.93;;
10715;SDS011;5409;42.620;23.316;2023-02-15T05:35:55;21.73;;;14.88;;
10715;SDS011;5409;42.620;23.316;2023-02-15T05:38:21;26.30;;;17.10;;
10715;SDS011;5409;42.620;23.316;2023-02-15T05:40:48;25.52;;;15.13;;
10715;SDS011;5409;42.620;23.316;2023-02-15T05:43:16;24.67;;;15.98;;
10715;SDS011;5409;42.620;23.316;2023-02-15T05:45:45;18.50;;;12.20;;
10715;SDS011;5409;42.620;23.316;2023-02-15T05:48:12;19.05;;;12.27;;
10715;SDS011;5409;42.620;23.316;2023-02-15T05:50:39;22.35;;;13.80;;
10715;SDS011;5409;42.620;23.316;2023-02-15T05:53:06;24.98;;;14.45;;
10715;SDS011;5409;42.620;23.316;2023-02-15T05:55:33;23.80;;;13.60;;
10715;SDS011;5409;42.620;23.316;2023-02-15T05:57:59;25.05;;;15.43;;
10715;SDS011;5409;42.620;23.316;2023-02-15T06:00:26;27.50;;;15.43;;
10715;SDS011;5409;42.620;23.316;2023-02-15T06:02:54;24.20;;;13.85;;
10715;SDS011;5409;42.620;23.316;2023-02-15T06:05:21;29.00;;;16.13;;
10715;SDS011;5409;42.620;23.316;2023-02-15T06:07:48;25.05;;;15.65;;
10715;SDS011;5409;42.620;23.316;2023-02-15T06:10:15;23.20;;;14.65;;
10715;SDS011;5409;42.620;23.316;2023-02-15T06:12:43;21.77;;;13.73;;
10715;SDS011;5409;42.620;23.316;2023-02-15T06:15:10;24.35;;;14.00;;
10715;SDS011;5409;42.620;23.316;2023-02-15T06:17:36;22.63;;;14.30;;
10715;SDS011;5409;42.620;23.316;2023-02-15T06:20:05;23.15;;;14.48;;
10715;SDS011;5409;42.620;23.316;2023-02-15T06:22:33;23.67;;;14.38;;
10715;SDS011;5409;42.620;23.316;2023-02-15T06:25:01;23.65;;;14.95;;
10715;SDS011;5409;42.620;23.316;2023-02-15T06:27:28;18.88;;;11.63;;
10715;SDS011;5409;42.620;23.316;2023-02-15T06:29:55;23.23;;;14.70;;
10715;SDS011;5409;42.620;23.316;2023-02-15T06:32:22;25.58;;;14.85;;
10715;SDS011;5409;42.620;23.316;2023-02-15T06:34:49;22.15;;;13.00;;
10715;SDS011;5409;42.620;23.316;2023-02-15T06:37:17;22.33;;;13.68;;
10715;SDS011;5409;42.620;23.316;2023-02-15T06:39:43;23.38;;;14.13;;
10715;SDS011;5409;42.620;23.316;2023-02-15T06:42:10;21.67;;;14.05;;
10715;SDS011;5409;42.620;23.316;2023-02-15T06:44:37;21.98;;;13.52;;
10715;SDS011;5409;42.620;23.316;2023-02-15T06:47:04;20.05;;;13.55;;
10715;SDS011;5409;42.620;23.316;2023-02-15T06:49:31;24.77;;;14.77;;
10715;SDS011;5409;42.620;23.316;2023-02-15T06:51:58;22.13;;;14.50;;
10715;SDS011;5409;42.620;23.316;2023-02-15T06:54:26;20.83;;;12.45;;
10715;SDS011;5409;42.620;23.316;2023-02-15T06:56:52;19.63;;;12.88;;
10715;SDS011;5409;42.620;23.316;2023-02-15T06:59:19;21.15;;;13.02;;
10715;SDS011;5409;42.620;23.316;2023-02-15T07:01:46;18.73;;;13.10;;
10715;SDS011;5409;42.620;23.316;2023-02-15T07:04:14;19.65;;;12.93;;
10715;SDS011;5409;42.620;23.316;2023-02-15T07:06:41;21.13;;;14.75;;
10715;SDS011;5409;42.620;23.316;2023-02-15T07:09:07;18.95;;;12.80;;
10715;SDS011;5409;42.620;23.316;2023-02-15T07:11:35;21.83;;;11.52;;
10715;SDS011;5409;42.620;23.316;2023-02-15T07:14:20;20.42;;;12.52;;
10715;SDS011;5409;42.620;23.316;2023-02-15T07:16:46;16.60;;;11.30;;
10715;SDS011;5409;42.620;23.316;2023-02-15T07:19:13;18.05;;;12.23;;
10715;SDS011;5409;42.620;23.316;2023-02-15T07:21:40;17.50;;;11.68;;
10715;SDS011;5409;42.620;23.316;2023-02-15T07:24:07;19.05;;;12.25;;
10715;SDS011;5409;42.620;23.316;2023-02-15T07:26:33;18.60;;;12.50;;
10715;SDS011;5409;42.620;23.316;2023-02-15T07:29:02;18.52;;;10.95;;
10715;SDS011;5409;42.620;23.316;2023-02-15T07:31:29;19.05;;;11.50;;
10715;SDS011;5409;42.620;23.316;2023-02-15T07:33:56;20.52;;;13.77;;
10715;SDS011;5409;42.620;23.316;2023-02-15T07:36:23;16.13;;;10.60;;
10715;SDS011;5409;42.620;23.316;2023-02-15T07:38:49;21.05;;;12.88;;
10715;SDS011;5409;42.620;23.316;2023-02-15T07:41:16;18.85;;;12.15;;
10715;SDS011;5409;42.620;23.316;2023-02-15T07:43:44;19.13;;;11.05;;
10715;SDS011;5409;42.620;23.316;2023-02-15T07:46:12;19.52;;;12.50;;
10715;SDS011;5409;42.620;23.316;2023-02-15T07:48:41;16.85;;;11.18;;
10715;SDS011;5409;42.620;23.316;2023-02-15T07:51:09;18.20;;;11.93;;
10715;SDS011;5409;42.620;23.316;2023-02-15T07:53:38;25.90;;;15.30;;
10715;SDS011;5409;42.620;23.316;2023-02-15T07:56:06;18.60;;;12.18;;
10715;SDS011;5409;42.620;23.316;2023-02-15T07:58:35;17.25;;;10.90;;
10715;SDS011;5409;42.620;23.316;2023-02-15T08:01:19;15.10;;;10.68;;
10715;SDS011;5409;42.620;23.316;2023-02-15T08:03:47;17.60;;;11.52;;
10715;SDS011;5409;42.620;23.316;2023-02-15T08:06:14;15.10;;;11.27;;
10715;SDS011;5409;42.620;23.316;2023-02-15T08:08:42;18.60;;;11.93;;
10715;SDS011;5409;42.620;23.316;2023-02-15T08:11:14;16.08;;;11.25;;
10715;SDS011;5409;42.620;23.316;2023-02-15T08:13:54;19.35;;;11.52;;
10715;SDS011;5409;42.620;23.316;2023-02-15T08:16:26;14.20;;;9.57;;
10715;SDS011;5409;42.620;23.316;2023-02-15T08:18:54;17.52;;;10.57;;
10715;SDS011;5409;42.620;23.316;2023-02-15T08:21:22;20.52;;;12.25;;
10715;SDS011;5409;42.620;23.316;2023-02-15T08:23:52;19.33;;;11.98;;
10715;SDS011;5409;42.620;23.316;2023-02-15T08:26:19;21.23;;;13.57;;
10715;SDS011;5409;42.620;23.316;2023-02-15T08:28:46;16.30;;;12.38;;
10715;SDS011;5409;42.620;23.316;2023-02-15T08:31:14;23.63;;;14.30;;
10715;SDS011;5409;42.620;23.316;2023-02-15T08:33:42;18.33;;;11.10;;
10715;SDS011;5409;42.620;23.316;2023-02-15T08:36:10;20.63;;;13.68;;
10715;SDS011;5409;42.620;23.316;2023-02-15T08:38:38;14.38;;;10.05;;
10715;SDS011;5409;42.620;23.316;2023-02-15T08:41:09;19.92;;;13.23;;
10715;SDS011;5409;42.620;23.316;2023-02-15T08:43:37;23.05;;;13.85;;
10715;SDS011;5409;42.620;23.316;2023-02-15T08:46:04;20.75;;;12.13;;
10715;SDS011;5409;42.620;23.316;2023-02-15T08:48:31;19.85;;;12.68;;
10715;SDS011;5409;42.620;23.316;2023-02-15T08:51:03;21.50;;;14.20;;
10715;SDS011;5409;42.620;23.316;2023-02-15T08:53:30;19.80;;;12.68;;
10715;SDS011;5409;42.620;23.316;2023-02-15T08:55:57;16.27;;;11.00;;
10715;SDS011;5409;42.620;23.316;2023-02-15T08:58:25;20.35;;;13.40;;
10715;SDS011;5409;42.620;23.316;2023-02-15T09:00:52;19.42;;;12.40;;
10715;SDS011;5409;42.620;23.316;2023-02-15T09:03:18;20.42;;;13.73;;
10715;SDS011;5409;42.620;23.316;2023-02-15T09:05:45;18.10;;;11.52;;
10715;SDS011;5409;42.620;23.316;2023-02-15T09:08:13;17.30;;;9.82;;
10715;SDS011;5409;42.620;23.316;2023-02-15T09:10:40;18.10;;;12.32;;
10715;SDS011;5409;42.620;23.316;2023-02-15T09:13:08;16.48;;;10.82;;
10715;SDS011;5409;42.620;23.316;2023-02-15T09:15:34;17.42;;;11.55;;
10715;SDS011;5409;42.620;23.316;2023-02-15T09:18:01;16.95;;;12.05;;
10715;SDS011;5409;42.620;23.316;2023-02-15T09:20:31;17.38;;;11.75;;
10715;SDS011;5409;42.620;23.316;2023-02-15T09:22:58;17.58;;;11.95;;
10715;SDS011;5409;42.620;23.316;2023-02-15T09:25:27;15.93;;;11.27;;
10715;SDS011;5409;42.620;23.316;2023-02-15T09:27:54;17.80;;;12.13;;
10715;SDS011;5409;42.620;23.316;2023-02-15T09:30:21;17.60;;;11.63;;
10715;SDS011;5409;42.620;23.316;2023-02-15T09:32:48;18.10;;;12.75;;
10715;SDS011;5409;42.620;23.316;2023-02-15T09:35:15;19.73;;;12.60;;
10715;SDS011;5409;42.620;23.316;2023-02-15T09:37:41;21.10;;;13.05;;
10715;SDS011;5409;42.620;23.316;2023-02-15T09:40:08;17.08;;;12.20;;
10715;SDS011;5409;42.620;23.316;2023-02-15T09:42:53;17.60;;;12.70;;
10715;SDS011;5409;42.620;23.316;2023-02-15T09:45:38;19.02;;;12.23;;
10715;SDS011;5409;42.620;23.316;2023-02-15T09:48:19;22.17;;;14.35;;
10715;SDS011;5409;42.620;23.316;2023-02-15T09:51:02;20.55;;;13.73;;
10715;SDS011;5409;42.620;23.316;2023-02-15T09:53:49;19.52;;;12.95;;
10715;SDS011;5409;42.620;23.316;2023-02-15T09:56:31;19.80;;;12.43;;
10715;SDS011;5409;42.620;23.316;2023-02-15T09:59:07;19.40;;;13.85;;
10715;SDS011;5409;42.620;23.316;2023-02-15T10:01:43;22.55;;;13.80;;
10715;SDS011;5409;42.620;23.316;2023-02-15T10:04:23;21.75;;;13.93;;
10715;SDS011;5409;42.620;23.316;2023-02-15T10:07:04;18.33;;;13.25;;
10715;SDS011;5409;42.620;23.316;2023-02-15T10:09:52;17.05;;;12.00;;
10715;SDS011;5409;42.620;23.316;2023-02-15T10:12:32;20.35;;;12.63;;
10715;SDS011;5409;42.620;23.316;2023-02-15T10:15:13;18.27;;;12.57;;
10715;SDS011;5409;42.620;23.316;2023-02-15T10:17:53;20.85;;;13.55;;
10715;SDS011;5409;42.620;23.316;2023-02-15T10:20:32;20.65;;;13.40;;
10715;SDS011;5409;42.620;23.316;2023-02-15T10:23:12;19.52;;;14.02;;
10715;SDS011;5409;42.620;23.316;2023-02-15T10:25:50;21.33;;;14.02;;
10715;SDS011;5409;42.620;23.316;2023-02-15T10:28:26;22.15;;;14.20;;
10715;SDS011;5409;42.620;23.316;2023-02-15T10:31:00;21.27;;;13.63;;
10715;SDS011;5409;42.620;23.316;2023-02-15T10:33:38;21.65;;;15.02;;
10715;SDS011;5409;42.620;23.316;2023-02-15T10:36:11;24.38;;;15.90;;
10715;SDS011;5409;42.620;23.316;2023-02-15T10:38:52;23.13;;;14.95;;
10715;SDS011;5409;42.620;23.316;2023-02-15T10:41:30;20.75;;;14.70;;
10715;SDS011;5409;42.620;23.316;2023-02-15T10:52:52;19.95;;;14.18;;
10715;SDS011;5409;42.620;23.316;2023-02-15T10:55:38;21.35;;;13.55;;
10715;SDS011;5409;42.620;23.316;2023-02-15T10:58:17;21.35;;;15.43;;
10715;SDS011;5409;42.620;23.316;2023-02-15T11:00:52;22.35;;;15.18;;
10715;SDS011;5409;42.620;23.316;2023-02-15T11:03:32;20.10;;;14.32;;
10715;SDS011;5409;42.620;23.316;2023-02-15T11:06:09;19.23;;;14.05;;
10715;SDS011;5409;42.620;23.316;2023-02-15T11:08:39;19.40;;;14.10;;
10715;SDS011;5409;42.620;23.316;2023-02-15T11:11:09;20.20;;;14.77;;
10715;SDS011;5409;42.620;23.316;2023-02-15T11:13:43;21.58;;;13.85;;
10715;SDS011;5409;42.620;23.316;2023-02-15T11:16:14;20.70;;;14.73;;
10715;SDS011;5409;42.620;23.316;2023-02-15T11:18:45;20.60;;;15.82;;
10715;SDS011;5409;42.620;23.316;2023-02-15T11:21:19;19.73;;;15.02;;
10715;SDS011;5409;42.620;23.316;2023-02-15T11:23:49;20.92;;;13.80;;
10715;SDS011;5409;42.620;23.316;2023-02-15T11:26:17;18.92;;;14.02;;
10715;SDS011;5409;42.620;23.316;2023-02-15T11:28:51;19.63;;;13.75;;
10715;SDS011;5409;42.620;23.316;2023-02-15T11:31:22;16.77;;;13.18;;
10715;SDS011;5409;42.620;23.316;2023-02-15T11:33:52;19.30;;;13.98;;
10715;SDS011;5409;42.620;23.316;2023-02-15T11:36:25;18.75;;;15.00;;
10715;SDS011;5409;42.620;23.316;2023-02-15T11:38:56;22.02;;;14.90;;
10715;SDS011;5409;42.620;23.316;2023-02-15T11:41:29;20.92;;;15.77;;
10715;SDS011;5409;42.620;23.316;2023-02-15T11:44:04;25.80;;;15.85;;
10715;SDS011;5409;42.620;23.316;2023-02-15T11:46:37;27.35;;;16.83;;
10715;SDS011;5409;42.620;23.316;2023-02-15T11:49:07;21.60;;;15.75;;
10715;SDS011;5409;42.620;23.316;2023-02-15T11:51:47;19.88;;;15.00;;
10715;SDS011;5409;42.620;23.316;2023-02-15T11:54:16;21.83;;;15.90;;
10715;SDS011;5409;42.620;23.316;2023-02-15T11:56:43;21.65;;;15.77;;
10715;SDS011;5409;42.620;23.316;2023-02-15T11:59:11;17.42;;;14.27;;
10715;SDS011;5409;42.620;23.316;2023-02-15T12:01:44;19.98;;;14.35;;
10715;SDS011;5409;42.620;23.316;2023-02-15T12:04:14;22.88;;;16.00;;
10715;SDS011;5409;42.620;23.316;2023-02-15T12:06:49;21.45;;;14.50;;
10715;SDS011;5409;42.620;23.316;2023-02-15T12:09:24;27.42;;;16.85;;
10715;SDS011;5409;42.620;23.316;2023-02-15T12:14:49;20.95;;;14.30;;
10715;SDS011;5409;42.620;23.316;2023-02-15T12:17:17;22.75;;;15.27;;
10715;SDS011;5409;42.620;23.316;2023-02-15T12:19:46;22.90;;;16.38;;
10715;SDS011;5409;42.620;23.316;2023-02-15T12:22:19;21.85;;;15.60;;
10715;SDS011;5409;42.620;23.316;2023-02-15T12:24:49;22.15;;;15.52;;
10715;SDS011;5409;42.620;23.316;2023-02-15T12:27:19;21.42;;;15.23;;
10715;SDS011;5409;42.620;23.316;2023-02-15T12:29:48;23.45;;;16.77;;
10715;SDS011;5409;42.620;23.316;2023-02-15T12:32:18;18.23;;;14.70;;
10715;SDS011;5409;42.620;23.316;2023-02-15T12:34:50;26.33;;;18.65;;
10715;SDS011;5409;42.620;23.316;2023-02-15T12:37:23;27.95;;;18.23;;
10715;SDS011;5409;42.620;23.316;2023-02-15T12:39:54;29.70;;;19.10;;
10715;SDS011;5409;42.620;23.316;2023-02-15T12:42:23;23.23;;;16.70;;
10715;SDS011;5409;42.620;23.316;2023-02-15T12:44:55;23.25;;;16.75;;
10715;SDS011;5409;42.620;23.316;2023-02-15T12:47:23;21.92;;;15.80;;
10715;SDS011;5409;42.620;23.316;2023-02-15T12:50:08;20.10;;;16.15;;
10715;SDS011;5409;42.620;23.316;2023-02-15T12:52:44;24.52;;;17.33;;
10715;SDS011;5409;42.620;23.316;2023-02-15T12:55:22;27.80;;;17.45;;
10715;SDS011;5409;42.620;23.316;2023-02-15T12:58:04;30.10;;;18.45;;
10715;SDS011;5409;42.620;23.316;2023-02-15T13:00:32;33.88;;;21.85;;
10715;SDS011;5409;42.620;23.316;2023-02-15T13:03:00;35.30;;;20.95;;
10715;SDS011;5409;42.620;23.316;2023-02-15T13:05:31;28.10;;;19.58;;
10715;SDS011;5409;42.620;23.316;2023-02-15T13:08:02;25.67;;;16.38;;
10715;SDS011;5409;42.620;23.316;2023-02-15T13:10:37;29.52;;;18.77;;
10715;SDS011;5409;42.620;23.316;2023-02-15T13:13:09;25.40;;;17.00;;
10715;SDS011;5409;42.620;23.316;2023-02-15T13:15:38;24.38;;;16.23;;
10715;SDS011;5409;42.620;23.316;2023-02-15T13:18:10;26.92;;;17.08;;
10715;SDS011;5409;42.620;23.316;2023-02-15T13:20:41;24.92;;;16.77;;
10715;SDS011;5409;42.620;23.316;2023-02-15T13:23:13;23.45;;;17.25;;
10715;SDS011;5409;42.620;23.316;2023-02-15T13:25:48;27.77;;;17.73;;
10715;SDS011;5409;42.620;23.316;2023-02-15T13:28:17;25.70;;;17.50;;
10715;SDS011;5409;42.620;23.316;2023-02-15T13:30:48;28.80;;;19.67;;
10715;SDS011;5409;42.620;23.316;2023-02-15T13:33:19;23.42;;;16.55;;
10715;SDS011;5409;42.620;23.316;2023-02-15T13:35:55;28.08;;;18.20;;
10715;SDS011;5409;42.620;23.316;2023-02-15T13:38:49;25.55;;;18.27;;
10715;SDS011;5409;42.620;23.316;2023-02-15T13:41:26;29.02;;;19.02;;
10715;SDS011;5409;42.620;23.316;2023-02-15T13:44:00;30.63;;;17.83;;
10715;SDS011;5409;42.620;23.316;2023-02-15T13:46:38;26.88;;;17.88;;
10715;SDS011;5409;42.620;23.316;2023-02-15T13:49:17;27.10;;;18.27;;
10715;SDS011;5409;42.620;23.316;2023-02-15T13:51:58;27.42;;;18.15;;
10715;SDS011;5409;42.620;23.316;2023-02-15T13:54:43;24.90;;;17.38;;
10715;SDS011;5409;42.620;23.316;2023-02-15T13:57:40;23.90;;;16.45;;
10715;SDS011;5409;42.620;23.316;2023-02-15T14:00:24;25.70;;;15.70;;
10715;SDS011;5409;42.620;23.316;2023-02-15T14:06:14;28.05;;;18.25;;
10715;SDS011;5409;42.620;23.316;2023-02-15T14:09:01;22.67;;;14.95;;
10715;SDS011;5409;42.620;23.316;2023-02-15T14:11:40;25.30;;;16.85;;
10715;SDS011;5409;42.620;23.316;2023-02-15T14:14:29;24.75;;;17.40;;
10715;SDS011;5409;42.620;23.316;2023-02-15T14:17:07;23.95;;;17.33;;
10715;SDS011;5409;42.620;23.316;2023-02-15T14:19:43;26.58;;;17.10;;
10715;SDS011;5409;42.620;23.316;2023-02-15T14:22:17;23.38;;;16.83;;
10715;SDS011;5409;42.620;23.316;2023-02-15T14:24:53;27.60;;;18.67;;
10715;SDS011;5409;42.620;23.316;2023-02-15T14:27:36;24.73;;;16.70;;
10715;SDS011;5409;42.620;23.316;2023-02-15T14:30:13;26.45;;;15.80;;
10715;SDS011;5409;42.620;23.316;2023-02-15T14:32:45;25.40;;;15.75;;
10715;SDS011;5409;42.620;23.316;2023-02-15T14:35:15;25.17;;;17.27;;
10715;SDS011;5409;42.620;23.316;2023-02-15T14:37:45;23.30;;;15.15;;
10715;SDS011;5409;42.620;23.316;2023-02-15T14:40:19;27.52;;;16.65;;
10715;SDS011;5409;42.620;23.316;2023-02-15T14:43:19;21.73;;;16.08;;
10715;SDS011;5409;42.620;23.316;2023-02-15T14:45:55;25.63;;;17.10;;
10715;SDS011;5409;42.620;23.316;2023-02-15T14:48:25;25.92;;;16.95;;
10715;SDS011;5409;42.620;23.316;2023-02-15T14:50:57;26.85;;;17.58;;
10715;SDS011;5409;42.620;23.316;2023-02-15T14:53:32;28.65;;;17.02;;
10715;SDS011;5409;42.620;23.316;2023-02-15T14:56:13;27.30;;;17.08;;
10715;SDS011;5409;42.620;23.316;2023-02-15T14:58:56;25.25;;;17.25;;
10715;SDS011;5409;42.620;23.316;2023-02-15T15:01:39;23.40;;;14.80;;
10715;SDS011;5409;42.620;23.316;2023-02-15T15:04:08;22.73;;;15.77;;